createdAt,value
2023-05-12T00:02:24.650Z,10.57
2023-05-12T00:04:54.074Z,14.25
2023-05-12T00:07:22.090Z,14.55
2023-05-12T00:09:50.115Z,19.87
2023-05-12T00:12:18.313Z,13.62
2023-05-12T00:14:46.237Z,15.70
2023-05-12T00:17:14.290Z,15.77
2023-05-12T00:19:44.395Z,18.05
2023-05-12T00:22:12.535Z,15.80
2023-05-12T00:24:40.553Z,11.85
2023-05-12T00:27:09.033Z,20.40
2023-05-12T00:29:37.271Z,11.00
2023-05-12T00:32:05.750Z,11.43
2023-05-12T00:34:34.302Z,15.05
2023-05-12T00:37:02.491Z,11.85
2023-05-12T00:39:30.420Z,21.05
2023-05-12T00:42:00.253Z,16.90
2023-05-12T00:44:28.137Z,14.82
2023-05-12T00:46:56.513Z,19.05
2023-05-12T00:49:26.963Z,18.02
2023-05-12T00:51:56.212Z,21.45
2023-05-12T00:54:25.584Z,20.70
2023-05-12T00:56:53.632Z,19.08
2023-05-12T00:59:22.250Z,23.27
2023-05-12T01:01:51.061Z,18.37
2023-05-12T01:04:19.177Z,22.23
2023-05-12T01:06:58.669Z,20.37
2023-05-12T01:09:27.326Z,20.67
2023-05-12T01:11:56.178Z,23.17
2023-05-12T01:14:24.138Z,19.73
2023-05-12T01:16:55.303Z,19.00
2023-05-12T01:19:41.799Z,22.45
2023-05-12T01:22:11.611Z,22.90
2023-05-12T01:24:50.215Z,22.00
2023-05-12T01:27:20.884Z,22.40
2023-05-12T01:29:49.504Z,20.83
2023-05-12T01:32:19.189Z,21.05
2023-05-12T01:34:47.221Z,20.92
2023-05-12T01:37:15.463Z,21.30
2023-05-12T01:39:44.010Z,23.23
2023-05-12T01:42:13.492Z,17.90
2023-05-12T01:44:41.568Z,20.20
2023-05-12T01:47:11.609Z,12.45
2023-05-12T01:49:39.950Z,11.93
2023-05-12T01:52:08.398Z,17.20
2023-05-12T01:54:36.821Z,16.58
2023-05-12T01:57:05.860Z,28.73
2023-05-12T01:59:34.984Z,17.92
2023-05-12T02:02:04.645Z,16.12
2023-05-12T02:04:33.061Z,19.58
2023-05-12T02:07:02.278Z,15.95
2023-05-12T02:09:30.509Z,16.62
2023-05-12T02:11:59.334Z,19.42
2023-05-12T02:14:27.549Z,15.73
2023-05-12T02:16:56.670Z,18.10
2023-05-12T02:19:25.695Z,14.98
2023-05-12T02:21:58.644Z,19.62
2023-05-12T02:24:27.237Z,18.73
2023-05-12T02:26:55.218Z,22.90
2023-05-12T02:29:23.460Z,21.65
2023-05-12T02:31:52.117Z,17.08
2023-05-12T02:34:20.872Z,22.17
2023-05-12T02:36:48.681Z,19.08
2023-05-12T02:39:18.107Z,19.65
2023-05-12T02:41:46.692Z,21.62
2023-05-12T02:44:16.932Z,24.67
2023-05-12T02:46:45.391Z,22.35
2023-05-12T02:49:13.963Z,27.40
2023-05-12T02:51:42.099Z,30.90
2023-05-12T02:54:10.120Z,29.95
2023-05-12T02:56:38.489Z,29.50
2023-05-12T02:59:06.501Z,35.28
2023-05-12T03:01:34.796Z,29.20
2023-05-12T03:04:03.225Z,33.03
2023-05-12T03:06:31.300Z,29.08
2023-05-12T03:09:00.213Z,30.67
2023-05-12T03:11:28.602Z,30.23
2023-05-12T03:13:56.604Z,32.20
2023-05-12T03:16:24.695Z,31.50
2023-05-12T03:18:53.132Z,30.55
2023-05-12T03:21:21.120Z,31.77
2023-05-12T03:23:49.196Z,22.62
2023-05-12T03:26:17.542Z,25.58
2023-05-12T03:28:45.571Z,24.15
2023-05-12T03:31:13.634Z,24.80
2023-05-12T03:33:42.058Z,26.75
2023-05-12T03:36:10.644Z,21.55
2023-05-12T03:38:38.662Z,23.83
2023-05-12T03:41:07.647Z,18.48
2023-05-12T03:43:36.361Z,20.67
2023-05-12T03:46:04.761Z,20.30
2023-05-12T03:48:33.218Z,24.10
2023-05-12T03:51:01.218Z,19.35
2023-05-12T03:53:29.351Z,17.42
2023-05-12T03:55:58.159Z,10.73
2023-05-12T03:58:27.103Z,11.68
2023-05-12T04:00:57.492Z,15.93
2023-05-12T04:03:26.318Z,12.15
2023-05-12T04:06:04.691Z,11.35
2023-05-12T04:08:33.469Z,14.25
2023-05-12T04:11:02.701Z,25.83
2023-05-12T04:13:34.316Z,17.35
2023-05-12T04:16:02.769Z,21.83
2023-05-12T04:18:30.881Z,12.15
2023-05-12T04:20:58.815Z,15.30
2023-05-12T04:23:27.509Z,13.68
2023-05-12T04:25:55.628Z,16.33
2023-05-12T04:28:23.707Z,10.73
2023-05-12T04:30:52.098Z,10.10
2023-05-12T04:33:22.345Z,9.73
2023-05-12T04:35:50.323Z,8.77
2023-05-12T04:38:18.555Z,9.98
2023-05-12T04:40:46.593Z,10.07
2023-05-12T04:45:46.380Z,9.63
2023-05-12T04:48:14.436Z,10.57
2023-05-12T04:50:42.904Z,10.65
2023-05-12T04:53:11.779Z,9.32
2023-05-12T04:55:39.930Z,10.00
2023-05-12T04:58:07.963Z,7.90
2023-05-12T05:00:36.609Z,7.45
2023-05-12T05:03:04.781Z,11.57
2023-05-12T05:05:33.936Z,7.37
2023-05-12T05:08:06.826Z,7.15
2023-05-12T05:10:35.789Z,6.47
2023-05-12T05:13:04.129Z,5.28
2023-05-12T05:15:32.359Z,6.70
2023-05-12T05:18:01.903Z,7.93
2023-05-12T05:20:33.076Z,6.28
2023-05-12T05:23:01.475Z,8.57
2023-05-12T05:25:29.644Z,8.10
2023-05-12T05:27:58.481Z,6.18
2023-05-12T05:30:26.535Z,7.12
2023-05-12T05:32:54.676Z,6.60
2023-05-12T05:35:23.191Z,7.20
2023-05-12T05:37:54.002Z,7.45
2023-05-12T05:40:23.784Z,7.03
2023-05-12T05:42:52.475Z,6.32
2023-05-12T05:45:20.684Z,5.15
2023-05-12T05:47:50.381Z,7.07
2023-05-12T05:50:18.404Z,6.25
2023-05-12T05:52:46.817Z,4.57
2023-05-12T05:55:15.416Z,4.50
2023-05-12T05:57:43.580Z,3.95
2023-05-12T06:00:12.868Z,4.82
2023-05-12T06:02:43.008Z,8.15
2023-05-12T06:05:14.440Z,6.12
2023-05-12T06:07:42.477Z,6.07
2023-05-12T06:10:10.502Z,5.47
2023-05-12T06:12:40.917Z,6.37
2023-05-12T06:15:09.316Z,5.10
2023-05-12T06:17:37.340Z,4.95
2023-05-12T06:20:06.966Z,4.87
2023-05-12T06:22:37.820Z,3.97
2023-05-12T06:25:06.532Z,4.50
2023-05-12T06:27:34.648Z,5.97
2023-05-12T06:30:02.809Z,4.30
2023-05-12T06:32:33.607Z,5.10
2023-05-12T06:35:01.647Z,5.75
2023-05-12T06:37:31.195Z,5.05
2023-05-12T06:39:59.442Z,5.50
2023-05-12T06:42:27.572Z,5.37
2023-05-12T06:44:56.795Z,5.93
2023-05-12T06:47:25.214Z,3.45
2023-05-12T06:49:53.289Z,4.80
2023-05-12T06:52:24.208Z,6.30
2023-05-12T06:54:52.718Z,7.25
2023-05-12T06:57:20.608Z,4.03
2023-05-12T06:59:48.887Z,5.72
2023-05-12T07:02:17.465Z,5.93
2023-05-12T07:04:45.462Z,4.37
2023-05-12T07:07:13.392Z,6.87
2023-05-12T07:09:42.820Z,5.10
2023-05-12T07:12:10.881Z,3.67
2023-05-12T07:14:38.784Z,3.00
2023-05-12T07:17:07.025Z,4.18
2023-05-12T07:19:35.929Z,3.80
2023-05-12T07:22:03.918Z,4.93
2023-05-12T07:24:32.368Z,3.87
2023-05-12T07:27:00.366Z,5.22
2023-05-12T07:29:28.462Z,3.40
2023-05-12T07:31:57.074Z,4.93
2023-05-12T07:34:25.044Z,5.53
2023-05-12T07:36:53.068Z,4.75
2023-05-12T07:39:24.046Z,3.83
2023-05-12T07:41:53.284Z,3.12
2023-05-12T07:44:21.728Z,3.20
2023-05-12T07:46:49.777Z,3.47
2023-05-12T07:49:17.840Z,3.78
2023-05-12T07:51:46.228Z,3.17
2023-05-12T07:54:14.112Z,3.17
2023-05-12T07:56:42.127Z,4.30
2023-05-12T07:59:11.213Z,3.60
2023-05-12T08:01:39.276Z,3.15
2023-05-12T08:04:07.963Z,3.37
2023-05-12T08:06:36.009Z,3.72
2023-05-12T08:09:04.408Z,3.85
2023-05-12T08:11:33.039Z,3.85
2023-05-12T08:14:01.084Z,3.95
2023-05-12T08:16:29.345Z,2.12
2023-05-12T08:18:59.158Z,2.65
2023-05-12T08:21:29.040Z,3.42
2023-05-12T08:23:57.817Z,3.35
2023-05-12T08:26:25.758Z,6.00
2023-05-12T08:28:53.644Z,5.57
2023-05-12T08:31:22.252Z,2.75
2023-05-12T08:34:02.763Z,4.60
2023-05-12T08:36:37.746Z,3.20
2023-05-12T08:39:06.105Z,2.15
2023-05-12T08:41:58.914Z,6.40
2023-05-12T08:44:27.829Z,2.47
2023-05-12T08:46:58.579Z,5.00
2023-05-12T08:49:29.899Z,3.55
2023-05-12T08:52:01.813Z,3.70
2023-05-12T08:54:30.342Z,3.40
2023-05-12T08:59:31.419Z,3.78
2023-05-12T09:02:04.741Z,3.65
2023-05-12T09:04:33.461Z,2.67
2023-05-12T09:07:02.179Z,2.55
2023-05-12T09:09:33.099Z,2.75
2023-05-12T09:12:03.343Z,4.62
2023-05-12T09:14:35.292Z,4.20
2023-05-12T09:17:05.186Z,3.28
2023-05-12T09:19:34.730Z,4.40
2023-05-12T09:22:02.687Z,3.22
2023-05-12T09:24:39.056Z,3.87
2023-05-12T09:27:07.886Z,2.72
2023-05-12T09:29:45.125Z,2.30
2023-05-12T09:32:17.050Z,3.33
2023-05-12T09:34:45.750Z,4.00
2023-05-12T09:37:15.508Z,5.57
2023-05-12T09:39:44.993Z,6.87
2023-05-12T09:42:13.431Z,5.97
2023-05-12T09:44:42.390Z,8.65
2023-05-12T09:47:10.974Z,4.00
2023-05-12T09:49:39.364Z,3.70
2023-05-12T09:52:09.663Z,4.43
2023-05-12T09:54:40.240Z,4.82
2023-05-12T09:57:13.136Z,5.97
2023-05-12T10:02:16.749Z,4.37
2023-05-12T10:04:51.110Z,2.03
2023-05-12T10:07:26.412Z,2.70
2023-05-12T10:09:58.890Z,3.15
2023-05-12T10:12:27.488Z,1.73
2023-05-12T10:14:57.087Z,2.03
2023-05-12T10:17:27.164Z,4.05
2023-05-12T10:19:56.347Z,4.68
2023-05-12T10:22:25.566Z,5.07
2023-05-12T10:24:56.359Z,2.55
2023-05-12T10:27:26.170Z,4.28
2023-05-12T10:29:55.159Z,3.70
2023-05-12T10:32:23.169Z,2.78
2023-05-12T10:34:52.467Z,4.30
2023-05-12T10:37:24.275Z,3.60
2023-05-12T10:39:53.376Z,4.20
2023-05-12T10:42:26.812Z,4.20
2023-05-12T10:45:02.042Z,4.35
2023-05-12T10:47:39.227Z,5.00
2023-05-12T10:50:08.451Z,3.15
2023-05-12T10:52:36.614Z,3.37
2023-05-12T10:55:04.910Z,4.72
2023-05-12T10:57:34.534Z,3.87
2023-05-12T11:00:13.719Z,3.83
2023-05-12T11:02:52.489Z,5.53
2023-05-12T11:05:22.196Z,4.40
2023-05-12T11:07:52.387Z,4.10
2023-05-12T11:10:21.904Z,2.92
2023-05-12T11:12:51.035Z,3.15
2023-05-12T11:15:19.644Z,3.28
2023-05-12T11:17:47.732Z,2.45
2023-05-12T11:20:28.075Z,6.47
2023-05-12T11:22:57.831Z,3.30
2023-05-12T11:25:28.732Z,4.35
2023-05-12T11:27:57.106Z,3.53
2023-05-12T11:30:25.150Z,6.57
2023-05-12T11:33:04.267Z,6.18
2023-05-12T11:35:32.848Z,6.90
2023-05-12T11:38:03.208Z,5.97
2023-05-12T11:40:31.023Z,5.50
2023-05-12T11:43:09.591Z,7.10
2023-05-12T11:45:38.079Z,6.55
2023-05-12T11:48:09.211Z,5.12
2023-05-12T11:50:40.230Z,5.53
2023-05-12T11:53:17.625Z,4.40
2023-05-12T11:55:56.988Z,3.83
2023-05-12T11:58:27.540Z,4.47
2023-05-12T12:00:57.506Z,2.85
2023-05-12T12:03:26.139Z,3.87
2023-05-12T12:06:03.006Z,3.25
2023-05-12T12:08:32.214Z,5.25
2023-05-12T12:11:02.745Z,4.28
2023-05-12T12:16:00.424Z,4.40
2023-05-12T12:18:28.427Z,5.28
2023-05-12T12:20:56.806Z,3.35
2023-05-12T12:23:25.320Z,6.78
2023-05-12T12:25:53.270Z,6.05
2023-05-12T12:28:21.720Z,3.90
2023-05-12T12:30:49.653Z,5.35
2023-05-12T12:33:20.165Z,7.60
2023-05-12T12:35:49.804Z,9.10
2023-05-12T12:38:17.719Z,5.65
2023-05-12T12:40:45.904Z,8.10
2023-05-12T12:43:14.472Z,16.90
2023-05-12T12:45:42.743Z,7.32
2023-05-12T12:48:10.768Z,12.57
2023-05-12T12:50:39.774Z,6.10
2023-05-12T12:53:08.040Z,5.03
2023-05-12T12:55:36.227Z,5.72
2023-05-12T12:58:04.703Z,6.37
2023-05-12T13:00:32.650Z,5.62
2023-05-12T13:03:01.389Z,6.82
2023-05-12T13:05:29.808Z,5.95
2023-05-12T13:07:58.011Z,3.78
2023-05-12T13:10:26.360Z,5.07
2023-05-12T13:12:54.892Z,5.07
2023-05-12T13:15:23.209Z,4.97
2023-05-12T13:17:52.105Z,5.35
2023-05-12T13:20:20.769Z,4.37
2023-05-12T13:22:49.076Z,5.05
2023-05-12T13:25:17.243Z,9.07
2023-05-12T13:27:46.025Z,5.82
2023-05-12T13:30:14.400Z,4.35
2023-05-12T13:32:42.733Z,4.07
2023-05-12T13:35:11.206Z,5.05
2023-05-12T13:37:39.242Z,5.65
2023-05-12T13:40:07.981Z,5.85
2023-05-12T13:42:36.643Z,9.38
2023-05-12T13:45:05.349Z,3.65
2023-05-12T13:47:33.871Z,4.62
2023-05-12T13:50:02.240Z,4.07
2023-05-12T13:52:31.829Z,4.00
2023-05-12T13:54:59.965Z,3.47
2023-05-12T13:57:28.349Z,9.60
2023-05-12T13:59:58.202Z,7.15
2023-05-12T14:02:26.215Z,4.47
2023-05-12T14:04:55.724Z,3.83
2023-05-12T14:07:23.731Z,5.12
2023-05-12T14:09:51.661Z,4.68
2023-05-12T14:12:20.111Z,4.35
2023-05-12T14:14:50.387Z,3.78
2023-05-12T14:17:19.068Z,5.22
2023-05-12T14:19:47.425Z,4.82
2023-05-12T14:22:25.153Z,3.40
2023-05-12T14:24:56.023Z,4.35
2023-05-12T14:27:24.293Z,4.40
2023-05-12T14:29:52.361Z,3.55
2023-05-12T14:32:20.785Z,4.30
2023-05-12T14:34:49.222Z,5.60
2023-05-12T14:37:17.262Z,4.75
2023-05-12T14:39:45.693Z,5.07
2023-05-12T14:42:13.829Z,7.18
2023-05-12T14:44:41.811Z,5.47
2023-05-12T14:47:10.049Z,4.03
2023-05-12T14:49:38.093Z,4.57
2023-05-12T14:52:06.872Z,5.85
2023-05-12T14:54:35.464Z,7.93
2023-05-12T14:57:04.375Z,5.12
2023-05-12T14:59:32.371Z,6.50
2023-05-12T15:02:00.821Z,7.37
2023-05-12T15:04:28.900Z,7.28
2023-05-12T15:06:56.997Z,4.85
2023-05-12T15:09:25.361Z,9.38
2023-05-12T15:11:53.520Z,5.15
2023-05-12T15:14:21.729Z,3.67
2023-05-12T15:16:50.285Z,3.55
2023-05-12T15:19:20.811Z,6.35
2023-05-12T15:21:49.325Z,5.32
2023-05-12T15:24:17.282Z,4.03
2023-05-12T15:26:45.293Z,3.67
2023-05-12T15:29:13.709Z,3.50
2023-05-12T15:31:41.714Z,4.28
2023-05-12T15:34:10.415Z,3.95
2023-05-12T15:36:39.078Z,4.72
2023-05-12T15:39:07.127Z,4.47
2023-05-12T15:41:35.226Z,4.62
2023-05-12T15:44:03.845Z,4.43
2023-05-12T15:46:32.012Z,4.40
2023-05-12T15:49:00.152Z,8.55
2023-05-12T15:51:29.185Z,3.90
2023-05-12T15:53:57.390Z,5.10
2023-05-12T15:56:25.444Z,5.45
2023-05-12T15:58:54.274Z,4.65
2023-05-12T16:01:22.944Z,6.28
2023-05-12T16:03:52.991Z,4.95
2023-05-12T16:06:22.139Z,9.70
2023-05-12T16:08:50.193Z,6.47
2023-05-12T16:11:18.587Z,7.28
2023-05-12T16:13:46.572Z,7.20
2023-05-12T16:16:14.658Z,7.87
2023-05-12T16:18:43.933Z,7.32
2023-05-12T16:21:13.145Z,11.07
2023-05-12T16:23:41.313Z,7.93
2023-05-12T16:26:09.877Z,15.30
2023-05-12T16:28:37.851Z,7.45
2023-05-12T16:31:06.103Z,9.73
2023-05-12T16:33:34.614Z,11.12
2023-05-12T16:36:02.740Z,10.77
2023-05-12T16:38:32.632Z,11.98
2023-05-12T16:41:01.146Z,11.18
2023-05-12T16:43:29.192Z,20.25
2023-05-12T16:46:01.693Z,8.55
2023-05-12T16:48:34.828Z,16.15
2023-05-12T16:51:05.769Z,8.15
2023-05-12T16:53:34.356Z,12.43
2023-05-12T16:56:03.215Z,10.23
2023-05-12T16:58:31.888Z,8.93
2023-05-12T17:01:01.447Z,13.25
2023-05-12T17:03:30.303Z,9.00
2023-05-12T17:05:58.540Z,10.30
2023-05-12T17:08:27.280Z,14.30
2023-05-12T17:10:55.411Z,8.40
2023-05-12T17:13:23.587Z,11.20
2023-05-12T17:15:52.472Z,8.63
2023-05-12T17:18:20.626Z,9.20
2023-05-12T17:20:48.590Z,10.32
2023-05-12T17:23:17.321Z,8.40
2023-05-12T17:25:45.664Z,9.43
2023-05-12T17:28:13.815Z,10.75
2023-05-12T17:30:43.389Z,20.70
2023-05-12T17:33:11.738Z,15.50
2023-05-12T17:35:39.813Z,13.65
2023-05-12T17:38:08.358Z,14.18
2023-05-12T17:40:36.408Z,25.70
2023-05-12T17:43:04.710Z,30.12
2023-05-12T17:45:33.684Z,30.58
2023-05-12T17:48:02.680Z,33.38
2023-05-12T17:50:30.869Z,20.70
2023-05-12T17:52:59.327Z,16.80
2023-05-12T17:55:27.597Z,29.67
2023-05-12T17:57:56.150Z,17.70
2023-05-12T18:00:25.358Z,16.48
2023-05-12T18:02:54.058Z,14.40
2023-05-12T18:05:22.400Z,21.55
2023-05-12T18:07:51.408Z,41.65
2023-05-12T18:10:20.101Z,38.65
2023-05-12T18:12:51.252Z,44.00
2023-05-12T18:15:23.616Z,28.08
2023-05-12T18:17:53.529Z,26.95
2023-05-12T18:20:22.807Z,25.15
2023-05-12T18:22:52.410Z,23.65
2023-05-12T18:25:20.957Z,22.35
2023-05-12T18:27:50.420Z,26.17
2023-05-12T18:30:21.550Z,22.83
2023-05-12T18:32:54.396Z,23.23
2023-05-12T18:35:27.637Z,26.12
2023-05-12T18:37:58.618Z,21.67
2023-05-12T18:40:29.415Z,18.15
2023-05-12T18:43:00.925Z,27.50
2023-05-12T18:45:29.833Z,26.00
2023-05-12T18:47:59.843Z,27.00
2023-05-12T18:50:30.757Z,27.15
2023-05-12T18:53:01.831Z,29.83
2023-05-12T18:55:31.378Z,30.37
2023-05-12T18:58:02.050Z,32.85
2023-05-12T19:00:34.522Z,28.17
2023-05-12T19:03:05.659Z,40.75
2023-05-12T19:05:35.195Z,47.40
2023-05-12T19:08:05.050Z,48.00
2023-05-12T19:10:33.514Z,62.20
2023-05-12T19:13:05.891Z,33.13
2023-05-12T19:15:37.804Z,37.15
2023-05-12T19:18:08.572Z,39.58
2023-05-12T19:20:39.361Z,54.20
2023-05-12T19:23:10.311Z,58.63
2023-05-12T19:25:39.310Z,40.53
2023-05-12T19:28:07.700Z,43.67
2023-05-12T19:30:38.314Z,42.33
2023-05-12T19:33:08.365Z,52.08
2023-05-12T19:35:37.185Z,49.50
2023-05-12T19:38:05.891Z,58.38
2023-05-12T19:40:35.078Z,61.63
2023-05-12T19:43:05.483Z,56.58
2023-05-12T19:45:33.771Z,49.85
2023-05-12T19:48:02.590Z,47.05
2023-05-12T19:50:31.503Z,53.58
2023-05-12T19:53:00.044Z,45.25
2023-05-12T19:55:28.341Z,67.65
2023-05-12T19:57:57.079Z,54.63
2023-05-12T20:00:27.132Z,47.65
2023-05-12T20:02:56.033Z,112.57
2023-05-12T20:05:24.993Z,33.58
2023-05-12T20:07:53.361Z,72.32
2023-05-12T20:10:21.859Z,66.80
2023-05-12T20:12:50.277Z,45.38
2023-05-12T20:15:18.550Z,31.95
2023-05-12T20:17:47.081Z,30.17
2023-05-12T20:20:15.268Z,44.70
2023-05-12T20:22:43.410Z,79.53
2023-05-12T20:25:16.376Z,65.90
2023-05-12T20:27:44.933Z,62.88
2023-05-12T20:30:13.815Z,83.97
2023-05-12T20:32:42.246Z,51.42
2023-05-12T20:35:10.433Z,25.12
2023-05-12T20:37:40.850Z,33.88
2023-05-12T20:40:09.708Z,47.75
2023-05-12T20:42:37.912Z,42.13
2023-05-12T20:45:07.052Z,30.52
2023-05-12T20:47:35.776Z,42.65
2023-05-12T20:50:05.969Z,37.67
2023-05-12T20:52:38.671Z,32.97
2023-05-12T20:55:07.561Z,20.10
2023-05-12T20:57:36.318Z,79.03
2023-05-12T21:00:04.722Z,53.75
2023-05-12T21:02:36.014Z,33.03
2023-05-12T21:05:04.578Z,27.92
2023-05-12T21:07:32.950Z,31.05
2023-05-12T21:10:01.182Z,28.05
2023-05-12T21:12:32.694Z,130.25
2023-05-12T21:15:00.827Z,49.20
2023-05-12T21:17:35.858Z,45.33
2023-05-12T21:20:04.318Z,48.58
2023-05-12T21:22:32.971Z,43.87
2023-05-12T21:25:01.235Z,38.47
2023-05-12T21:27:32.068Z,41.65
2023-05-12T21:30:00.468Z,34.47
2023-05-12T21:32:29.030Z,40.28
2023-05-12T21:34:57.545Z,77.35
2023-05-12T21:37:25.957Z,37.78
2023-05-12T21:39:54.221Z,41.42
2023-05-12T21:42:22.989Z,47.05
2023-05-12T21:44:51.946Z,48.53
2023-05-12T21:47:19.813Z,33.17
2023-05-12T21:49:47.933Z,85.75
2023-05-12T21:52:16.377Z,32.70
2023-05-12T21:54:44.333Z,32.65
2023-05-12T21:57:12.528Z,26.92
2023-05-12T21:59:40.857Z,31.33
2023-05-12T22:02:09.000Z,65.57
2023-05-12T22:04:37.464Z,80.00
2023-05-12T22:07:06.058Z,34.55
2023-05-12T22:09:34.021Z,41.55
2023-05-12T22:12:02.297Z,42.58
2023-05-12T22:14:30.188Z,48.97
2023-05-12T22:16:58.181Z,65.37
2023-05-12T22:19:26.572Z,45.92
2023-05-12T22:21:55.302Z,138.30
2023-05-12T22:24:23.356Z,174.80
2023-05-12T22:26:51.676Z,33.83
2023-05-12T22:29:19.701Z,23.15
2023-05-12T22:31:47.750Z,29.80
2023-05-12T22:34:16.175Z,33.75
2023-05-12T22:36:44.279Z,24.70
2023-05-12T22:39:14.061Z,28.08
2023-05-12T22:41:42.361Z,24.37
2023-05-12T22:44:10.225Z,26.05
2023-05-12T22:46:38.307Z,23.00
2023-05-12T22:49:06.591Z,24.87
2023-05-12T22:51:34.696Z,26.40
2023-05-12T22:54:02.571Z,26.90
2023-05-12T22:56:30.754Z,26.98
2023-05-12T22:58:58.889Z,28.05
2023-05-12T23:01:26.881Z,29.48
2023-05-12T23:03:55.304Z,28.38
2023-05-12T23:06:23.313Z,24.75
2023-05-12T23:08:51.396Z,30.88
2023-05-12T23:11:19.856Z,30.52
2023-05-12T23:13:47.811Z,25.37
2023-05-12T23:16:16.262Z,30.48
2023-05-12T23:18:44.751Z,33.65
2023-05-12T23:21:12.871Z,31.50
2023-05-12T23:23:40.977Z,28.67
2023-05-12T23:26:10.185Z,25.77
2023-05-12T23:28:38.213Z,25.70
2023-05-12T23:31:06.231Z,24.87
2023-05-12T23:33:34.737Z,21.60
2023-05-12T23:36:03.154Z,27.15
2023-05-12T23:38:31.515Z,26.85
2023-05-12T23:40:59.912Z,24.50
2023-05-12T23:43:28.411Z,23.25
2023-05-12T23:45:56.626Z,27.05
2023-05-12T23:48:25.094Z,25.85
2023-05-12T23:50:53.271Z,23.30
2023-05-12T23:53:21.324Z,27.25
2023-05-12T23:55:49.740Z,25.98
2023-05-12T23:58:17.647Z,26.75
